Time;durP1;ratioP1;P1;durP2;ratioP2;P2;SDS_P1;SDS_P2;PMS_P1;PMS_P2;Temp;Humidity;BMP_temperature;BMP_pressure;BME280_temperature;BME280_humidity;BME280_pressure;Samples;Min_cycle;Max_cycle;Signal;HPM_P1;HPM_P2
2023/02/08 00:01:42;;;;;;;9.70;8.45;;;15.70;61.70;;;;;;5028163;28;20044;-18
2023/02/08 00:04:08;;;;;;;9.20;8.30;;;15.70;61.50;;;;;;5026283;28;20502;-20
2023/02/08 00:06:34;;;;;;;8.95;7.78;;;15.80;61.30;;;;;;5025114;28;20439;-17
2023/02/08 00:09:00;;;;;;;10.90;8.20;;;15.90;61.10;;;;;;5024463;28;20070;-17
2023/02/08 00:11:25;;;;;;;9.23;8.15;;;15.80;61.10;;;;;;5025200;28;20568;-17
2023/02/08 00:13:51;;;;;;;9.88;8.43;;;15.70;61.50;;;;;;5021451;28;20311;-17
2023/02/08 00:16:17;;;;;;;8.70;7.80;;;15.70;61.60;;;;;;5030701;28;20048;-17
2023/02/08 00:18:43;;;;;;;9.30;8.43;;;15.80;61.40;;;;;;5028463;28;20224;-18
2023/02/08 00:21:13;;;;;;;8.70;7.53;;;15.80;61.20;;;;;;5034111;28;20048;-16
2023/02/08 00:23:39;;;;;;;9.15;8.23;;;15.70;61.30;;;;;;5035478;28;20053;-18
2023/02/08 00:26:04;;;;;;;9.05;8.20;;;15.60;61.50;;;;;;5034116;28;20049;-17
2023/02/08 00:28:30;;;;;;;8.98;7.22;;;15.60;61.70;;;;;;5037311;28;20156;-17
2023/02/08 00:30:55;;;;;;;9.00;7.72;;;15.70;61.60;;;;;;5037562;28;20041;-20
2023/02/08 00:33:21;;;;;;;8.35;7.53;;;15.70;61.40;;;;;;5039329;28;20068;-21
2023/02/08 00:35:47;;;;;;;7.63;6.93;;;15.60;62.30;;;;;;5038456;28;20050;-17
2023/02/08 00:38:12;;;;;;;8.98;8.07;;;15.60;61.50;;;;;;5039695;28;20114;-17
2023/02/08 00:40:38;;;;;;;7.43;6.72;;;15.70;61.40;;;;;;5043960;28;20549;-17
2023/02/08 00:43:03;;;;;;;8.40;7.60;;;15.70;61.30;;;;;;5037900;28;20041;-19
2023/02/08 00:45:29;;;;;;;7.60;6.90;;;15.70;61.20;;;;;;5039736;28;20040;-17
2023/02/08 00:47:54;;;;;;;8.05;7.05;;;15.70;61.20;;;;;;5036577;28;20045;-18
2023/02/08 00:50:20;;;;;;;8.23;6.50;;;15.60;61.20;;;;;;5039620;28;20514;-17
2023/02/08 00:52:46;;;;;;;9.13;7.03;;;15.60;61.10;;;;;;5040972;28;20052;-17
2023/02/08 00:55:11;;;;;;;7.65;6.95;;;15.60;61.20;;;;;;5036805;28;20044;-16
2023/02/08 00:57:37;;;;;;;7.13;6.47;;;15.70;60.90;;;;;;5038892;28;21326;-18
2023/02/08 01:00:04;;;;;;;6.72;6.22;;;15.80;60.60;;;;;;5038010;28;20180;-24
2023/02/08 01:02:30;;;;;;;7.50;6.43;;;15.70;60.60;;;;;;5038862;28;20422;-17
2023/02/08 01:04:55;;;;;;;7.20;6.50;;;15.70;60.80;;;;;;5039516;28;20043;-20
2023/02/08 01:07:21;;;;;;;7.35;6.70;;;15.60;60.90;;;;;;5050158;28;20060;-18
2023/02/08 01:09:46;;;;;;;7.35;6.78;;;15.50;61.00;;;;;;5038320;28;20033;-17
2023/02/08 01:12:12;;;;;;;6.68;5.97;;;15.60;60.90;;;;;;5038303;28;20468;-18
2023/02/08 01:14:38;;;;;;;7.45;6.75;;;15.60;61.00;;;;;;5038976;28;20501;-17
2023/02/08 01:17:03;;;;;;;6.85;6.25;;;15.60;60.90;;;;;;5038080;28;20177;-16
2023/02/08 01:19:29;;;;;;;7.35;6.55;;;15.50;61.20;;;;;;5039912;28;20062;-17
2023/02/08 01:21:55;;;;;;;7.10;6.50;;;15.50;61.10;;;;;;5038345;28;20048;-17
2023/02/08 01:24:20;;;;;;;7.10;6.43;;;15.60;60.90;;;;;;5041041;28;20043;-17
2023/02/08 01:26:46;;;;;;;6.90;6.20;;;15.60;60.70;;;;;;5038199;28;20537;-18
2023/02/08 01:29:12;;;;;;;7.93;6.50;;;15.60;60.50;;;;;;5039520;28;21535;-25
2023/02/08 01:31:38;;;;;;;7.05;6.45;;;15.50;60.80;;;;;;5039049;28;20086;-16
2023/02/08 01:34:04;;;;;;;6.75;6.15;;;15.50;61.00;;;;;;5037806;28;20029;-19
2023/02/08 01:36:30;;;;;;;6.93;6.22;;;15.60;60.40;;;;;;5042306;28;20417;-18
2023/02/08 01:38:56;;;;;;;6.57;5.97;;;15.50;60.50;;;;;;5036528;28;20048;-17
2023/02/08 01:41:28;;;;;;;6.53;5.93;;;15.60;60.70;;;;;;5038079;28;20041;-21
2023/02/08 01:43:59;;;;;;;6.47;5.88;;;15.60;60.40;;;;;;5036959;28;20593;-19
2023/02/08 01:46:25;;;;;;;6.55;5.95;;;15.60;60.30;;;;;;5037397;28;20051;-17
2023/02/08 01:48:50;;;;;;;6.53;5.93;;;15.50;60.80;;;;;;5037168;28;20052;-16
2023/02/08 01:51:27;;;;;;;7.47;6.60;;;15.40;60.90;;;;;;5037938;28;20037;-16
2023/02/08 01:53:54;;;;;;;6.70;6.07;;;15.40;60.80;;;;;;5024416;28;20476;-18
2023/02/08 01:56:22;;;;;;;6.13;5.53;;;15.40;60.70;;;;;;5036902;28;20044;-21
2023/02/08 01:58:50;;;;;;;6.00;5.50;;;15.50;60.80;;;;;;5041318;28;20087;-20
2023/02/08 02:01:15;;;;;;;7.00;6.30;;;15.40;60.70;;;;;;5038634;28;20036;-16
2023/02/08 02:03:41;;;;;;;6.25;5.75;;;15.50;60.50;;;;;;5043094;28;20063;-17
2023/02/08 02:06:18;;;;;;;5.70;5.30;;;15.40;60.70;;;;;;5034934;28;20040;-17
2023/02/08 02:08:55;;;;;;;5.85;5.25;;;15.40;60.50;;;;;;5036345;28;20041;-18
2023/02/08 02:11:20;;;;;;;5.38;4.93;;;15.40;60.70;;;;;;5038410;28;20641;-16
2023/02/08 02:13:46;;;;;;;5.70;5.22;;;15.50;60.50;;;;;;5051737;28;20091;-16
2023/02/08 02:16:12;;;;;;;6.18;5.57;;;15.60;60.40;;;;;;5039493;28;20792;-19
2023/02/08 02:18:37;;;;;;;5.68;5.25;;;15.50;60.20;;;;;;5035854;28;20045;-28
2023/02/08 02:21:13;;;;;;;6.05;5.47;;;15.50;60.30;;;;;;5051541;28;21705;-17
2023/02/08 02:23:47;;;;;;;5.05;4.65;;;15.60;60.30;;;;;;5037545;28;20133;-16
2023/02/08 02:26:16;;;;;;;;;;;15.60;60.00;;;;;;5035996;28;20025;-20
2023/02/08 02:28:42;;;;;;;5.90;5.40;;;15.70;60.00;;;;;;5036259;28;20392;-24
2023/02/08 02:31:33;;;;;;;5.57;5.07;;;15.60;59.90;;;;;;5035211;28;20041;-21
2023/02/08 02:34:25;;;;;;;5.30;4.90;;;15.50;60.30;;;;;;5036948;28;20036;-17
2023/02/08 02:36:52;;;;;;;5.15;4.75;;;15.50;60.20;;;;;;5041325;28;20048;-17
2023/02/08 02:39:26;;;;;;;5.50;5.03;;;15.50;60.10;;;;;;5020365;28;20064;-17
2023/02/08 02:45:14;;;;;;;5.25;4.95;;;15.50;60.30;;;;;;5030105;28;20131;-27
2023/02/08 02:47:51;;;;;;;5.05;4.75;;;15.50;60.10;;;;;;5010320;28;20064;-23
2023/02/08 02:50:20;;;;;;;5.05;4.65;;;15.40;60.20;;;;;;5032906;28;20795;-24
2023/02/08 02:52:53;;;;;;;5.10;4.70;;;15.40;60.30;;;;;;5036546;28;20997;-15
2023/02/08 02:55:21;;;;;;;5.03;4.63;;;15.40;60.30;;;;;;5023140;28;20044;-28
2023/02/08 02:57:46;;;;;;;4.95;4.55;;;15.40;60.00;;;;;;5030003;28;20037;-19
2023/02/08 03:00:21;;;;;;;7.93;4.32;;;15.40;60.30;;;;;;5044944;28;21670;-17
2023/02/08 03:02:47;;;;;;;4.13;3.92;;;15.40;60.10;;;;;;5022410;28;20136;-23
2023/02/08 03:05:12;;;;;;;4.75;4.38;;;15.40;60.20;;;;;;5036012;28;20415;-13
2023/02/08 03:08:00;;;;;;;4.90;4.50;;;15.40;60.20;;;;;;5044622;28;20049;-16
2023/02/08 03:10:57;;;;;;;4.80;4.50;;;15.40;60.20;;;;;;5046004;28;20482;-29
2023/02/08 03:13:32;;;;;;;4.72;4.43;;;15.40;60.30;;;;;;5040775;28;20490;-17
2023/02/08 03:16:09;;;;;;;4.30;4.00;;;15.40;60.30;;;;;;5060311;28;20049;-16
2023/02/08 03:18:41;;;;;;;4.55;4.25;;;15.40;60.30;;;;;;5045104;28;20517;-19
2023/02/08 03:21:46;;;;;;;4.60;4.30;;;15.30;60.20;;;;;;5050707;28;20048;-16
2023/02/08 03:24:20;;;;;;;4.57;4.18;;;15.30;60.40;;;;;;5045565;28;20078;-27
2023/02/08 03:27:18;;;;;;;4.15;3.83;;;15.30;60.20;;;;;;5047469;28;20715;-19
2023/02/08 03:29:51;;;;;;;4.20;3.90;;;15.30;60.50;;;;;;5046979;28;20068;-22
2023/02/08 03:32:25;;;;;;;4.57;4.28;;;15.30;60.30;;;;;;5047971;28;20044;-17
2023/02/08 03:35:00;;;;;;;4.30;4.00;;;15.30;60.40;;;;;;5017959;28;20601;-20
2023/02/08 03:37:47;;;;;;;3.83;3.63;;;15.20;60.40;;;;;;5047330;28;20147;-16
2023/02/08 03:40:19;;;;;;;4.25;3.92;;;15.20;60.40;;;;;;5033520;28;20048;-15
2023/02/08 03:42:45;;;;;;;4.03;3.78;;;15.20;60.40;;;;;;5033008;28;20056;-25
2023/02/08 03:45:22;;;;;;;4.03;3.83;;;15.20;60.40;;;;;;5016993;28;20044;-17
2023/02/08 03:47:48;;;;;;;4.10;3.80;;;15.20;60.50;;;;;;5034477;28;20045;-29
2023/02/08 03:50:16;;;;;;;3.92;3.63;;;15.20;60.20;;;;;;5032399;28;20049;-15
2023/02/08 03:52:43;;;;;;;3.78;3.58;;;15.20;60.30;;;;;;5047163;28;20049;-17
2023/02/08 03:55:14;;;;;;;4.28;3.97;;;15.20;60.30;;;;;;5013969;28;20049;-23
2023/02/08 03:57:58;;;;;;;3.50;3.30;;;15.20;60.30;;;;;;5036106;28;20044;-14
2023/02/08 04:00:24;;;;;;;4.30;4.00;;;15.20;61.10;;;;;;5050915;28;20047;-17
2023/02/08 04:03:01;;;;;;;3.83;3.63;;;15.20;60.40;;;;;;5043510;28;20045;-28
2023/02/08 04:05:27;;;;;;;3.40;3.20;;;15.20;60.20;;;;;;5053043;28;20065;-15
2023/02/08 04:07:52;;;;;;;3.45;3.25;;;15.30;60.30;;;;;;5034606;28;20147;-16
2023/02/08 04:10:18;;;;;;;4.38;4.03;;;15.20;60.30;;;;;;5040603;28;20055;-14
2023/02/08 04:12:44;;;;;;;3.40;3.20;;;15.10;60.30;;;;;;5065851;28;20506;-22
2023/02/08 04:15:10;;;;;;;3.28;3.08;;;15.20;60.40;;;;;;5046539;28;20193;-15
2023/02/08 04:17:35;;;;;;;3.78;3.47;;;15.20;60.30;;;;;;5041032;28;20044;-15
2023/02/08 04:20:01;;;;;;;4.10;3.80;;;15.20;60.40;;;;;;5049422;28;20418;-19
2023/02/08 04:22:26;;;;;;;3.53;3.22;;;15.10;60.30;;;;;;5041329;28;20044;-24
2023/02/08 04:24:52;;;;;;;3.53;3.30;;;15.20;60.20;;;;;;5048554;28;20444;-26
2023/02/08 04:27:17;;;;;;;3.70;3.40;;;15.20;60.20;;;;;;5037510;28;20041;-18
2023/02/08 04:29:43;;;;;;;3.13;2.92;;;15.20;60.20;;;;;;5057648;28;20437;-21
2023/02/08 04:32:10;;;;;;;3.85;3.65;;;15.20;60.20;;;;;;5049225;28;20513;-16
2023/02/08 04:34:37;;;;;;;3.30;3.10;;;15.20;60.10;;;;;;5035618;28;20040;-26
2023/02/08 04:37:03;;;;;;;3.72;3.53;;;15.20;60.20;;;;;;5038622;28;20037;-17
2023/02/08 04:39:29;;;;;;;4.07;3.78;;;15.20;60.20;;;;;;5048219;28;20580;-17
2023/02/08 04:41:54;;;;;;;3.50;3.30;;;15.20;60.00;;;;;;5041877;28;20050;-18
2023/02/08 04:44:20;;;;;;;3.20;3.00;;;15.10;60.20;;;;;;5047667;28;20037;-18
2023/02/08 04:46:45;;;;;;;3.38;3.17;;;15.10;60.30;;;;;;5047611;28;21353;-18
2023/02/08 04:49:11;;;;;;;3.47;3.28;;;15.10;60.20;;;;;;5048079;28;20044;-17
2023/02/08 04:51:37;;;;;;;2.92;2.72;;;15.20;60.10;;;;;;5048853;28;20529;-17
2023/02/08 04:54:02;;;;;;;3.70;3.40;;;15.20;60.10;;;;;;5063144;28;20051;-12
2023/02/08 04:56:28;;;;;;;3.47;3.28;;;15.10;60.00;;;;;;5048480;28;20230;-15
2023/02/08 04:58:54;;;;;;;3.90;3.70;;;15.10;60.10;;;;;;5048855;28;20181;-18
2023/02/08 05:01:19;;;;;;;3.67;3.40;;;15.10;60.10;;;;;;5047762;28;20121;-16
2023/02/08 05:03:45;;;;;;;3.65;3.45;;;15.10;60.10;;;;;;5047388;28;20410;-24
2023/02/08 05:06:10;;;;;;;3.75;3.47;;;15.10;60.20;;;;;;5048199;28;20409;-18
2023/02/08 05:08:36;;;;;;;4.18;3.83;;;15.10;61.00;;;;;;5045851;28;20040;-16
2023/02/08 05:11:02;;;;;;;3.55;3.35;;;15.00;60.10;;;;;;5042175;28;20067;-14
2023/02/08 05:13:27;;;;;;;3.70;3.50;;;15.00;60.10;;;;;;5036512;28;20079;-21
2023/02/08 05:15:53;;;;;;;3.35;3.10;;;15.00;60.20;;;;;;5021703;28;20052;-15
2023/02/08 05:18:18;;;;;;;3.20;3.00;;;15.00;60.10;;;;;;5032068;28;20048;-16
2023/02/08 05:20:44;;;;;;;3.25;3.05;;;15.00;60.10;;;;;;5040150;28;20076;-15
2023/02/08 05:23:10;;;;;;;3.03;2.83;;;15.10;60.00;;;;;;5043422;28;20494;-18
2023/02/08 05:25:37;;;;;;;3.65;3.40;;;15.00;60.00;;;;;;5038118;28;20495;-16
2023/02/08 05:28:03;;;;;;;3.03;2.83;;;15.00;60.10;;;;;;5025064;28;21166;-17
2023/02/08 05:30:28;;;;;;;3.30;3.00;;;15.00;60.10;;;;;;5020044;28;20044;-17
2023/02/08 05:32:54;;;;;;;3.10;2.90;;;14.90;60.10;;;;;;5035780;28;20196;-18
2023/02/08 05:35:19;;;;;;;3.72;3.53;;;15.00;61.00;;;;;;5033452;28;20073;-15
2023/02/08 05:37:45;;;;;;;3.53;3.33;;;15.00;60.10;;;;;;5032371;28;20785;-16
2023/02/08 05:40:12;;;;;;;3.30;3.10;;;15.00;60.00;;;;;;5041620;28;20041;-23
2023/02/08 05:42:37;;;;;;;3.40;3.20;;;15.00;60.10;;;;;;5040355;28;20052;-17
2023/02/08 05:45:04;;;;;;;3.00;2.80;;;14.90;60.10;;;;;;5044177;28;20055;-16
2023/02/08 05:47:29;;;;;;;3.13;2.92;;;15.00;60.00;;;;;;5047392;28;20049;-22
2023/02/08 05:49:55;;;;;;;3.20;3.00;;;15.00;60.00;;;;;;5046917;28;20149;-24
2023/02/08 05:52:21;;;;;;;3.08;2.88;;;15.00;60.10;;;;;;5041449;28;20110;-16
2023/02/08 05:54:46;;;;;;;3.78;3.58;;;14.90;60.20;;;;;;5043256;28;20135;-16
2023/02/08 05:57:12;;;;;;;3.30;3.10;;;15.00;60.10;;;;;;5049032;28;20037;-16
2023/02/08 05:59:37;;;;;;;3.38;3.17;;;14.90;60.10;;;;;;5043231;28;20060;-18
2023/02/08 06:02:03;;;;;;;3.20;3.00;;;15.00;60.10;;;;;;5041437;28;20051;-17
2023/02/08 06:04:29;;;;;;;2.83;2.70;;;14.90;59.90;;;;;;5039746;28;20064;-18
2023/02/08 06:06:54;;;;;;;3.13;2.92;;;15.00;59.80;;;;;;5038954;28;20053;-16
2023/02/08 06:09:20;;;;;;;2.95;2.75;;;14.90;60.00;;;;;;5036400;28;20052;-17
2023/02/08 06:11:46;;;;;;;3.80;3.60;;;14.90;60.00;;;;;;5039711;28;20517;-21
2023/02/08 06:14:12;;;;;;;3.30;3.10;;;15.00;60.10;;;;;;5042622;28;20206;-17
2023/02/08 06:16:37;;;;;;;2.28;2.17;;;14.90;61.10;;;;;;5052637;28;20044;-21
2023/02/08 06:19:03;;;;;;;2.90;2.70;;;14.90;62.90;;;;;;5048384;28;20048;-17
2023/02/08 06:21:28;;;;;;;2.67;2.47;;;14.80;64.20;;;;;;5045380;28;21095;-15
2023/02/08 06:23:54;;;;;;;3.10;2.85;;;14.80;64.60;;;;;;5046476;28;20496;-18
2023/02/08 06:26:20;;;;;;;3.03;2.67;;;14.80;64.70;;;;;;5045893;28;20058;-19
2023/02/08 06:28:45;;;;;;;3.10;2.90;;;14.80;64.80;;;;;;5039665;28;20048;-16
2023/02/08 06:31:11;;;;;;;3.47;3.28;;;14.80;64.80;;;;;;5035465;28;20055;-15
2023/02/08 06:33:36;;;;;;;3.50;3.30;;;14.80;64.60;;;;;;5044092;28;20442;-17
2023/02/08 06:36:02;;;;;;;3.33;3.13;;;14.90;64.20;;;;;;5045432;28;20082;-20
2023/02/08 06:38:28;;;;;;;3.10;2.90;;;15.00;63.60;;;;;;5046155;28;22974;-17
2023/02/08 06:40:53;;;;;;;3.97;3.50;;;15.10;63.20;;;;;;5047517;28;20044;-16
2023/02/08 06:43:19;;;;;;;3.15;2.95;;;15.20;62.70;;;;;;5046207;28;20052;-16
2023/02/08 06:45:45;;;;;;;3.80;3.60;;;15.30;61.90;;;;;;5046814;28;20033;-17
2023/02/08 06:48:11;;;;;;;3.67;3.47;;;15.30;61.70;;;;;;5046150;28;20053;-27
2023/02/08 06:50:37;;;;;;;3.67;3.10;;;15.20;61.70;;;;;;5048168;28;20055;-21
2023/02/08 06:53:03;;;;;;;3.58;3.38;;;15.20;61.90;;;;;;5044922;28;20430;-23
2023/02/08 06:55:28;;;;;;;3.65;3.45;;;15.10;61.70;;;;;;5047002;28;20071;-16
2023/02/08 06:57:54;;;;;;;3.28;3.08;;;15.20;61.80;;;;;;5043997;28;20080;-17
2023/02/08 07:00:20;;;;;;;3.17;2.97;;;15.10;61.80;;;;;;5044150;28;20048;-18
2023/02/08 07:02:48;;;;;;;3.35;3.15;;;15.20;61.70;;;;;;5046864;28;20459;-21
2023/02/08 07:05:14;;;;;;;3.63;3.20;;;15.10;63.30;;;;;;5046831;28;20421;-19
2023/02/08 07:07:40;;;;;;;3.95;3.60;;;15.00;63.20;;;;;;5043282;28;20821;-18
2023/02/08 07:10:06;;;;;;;2.85;2.67;;;15.00;62.80;;;;;;5047070;28;20048;-18
2023/02/08 07:12:34;;;;;;;3.35;3.15;;;15.00;62.80;;;;;;5042801;28;20460;-36
2023/02/08 07:15:00;;;;;;;3.08;2.78;;;14.90;63.20;;;;;;5042485;28;20064;-19
2023/02/08 07:17:26;;;;;;;3.10;2.90;;;14.90;63.20;;;;;;5044627;28;20511;-18
2023/02/08 07:19:51;;;;;;;3.75;3.50;;;14.90;63.40;;;;;;5044053;28;20055;-18
2023/02/08 07:22:17;;;;;;;3.55;3.25;;;15.10;63.40;;;;;;5043795;28;20079;-19
2023/02/08 07:24:43;;;;;;;3.30;3.10;;;15.10;62.90;;;;;;5043169;28;20049;-18
2023/02/08 07:27:10;;;;;;;3.13;2.95;;;15.10;62.90;;;;;;5043890;28;20579;-17
2023/02/08 07:29:36;;;;;;;2.95;2.75;;;15.10;63.90;;;;;;5044253;28;20084;-24
2023/02/08 07:32:02;;;;;;;2.95;2.80;;;14.90;63.20;;;;;;5059832;28;20148;-19
2023/02/08 07:34:28;;;;;;;3.65;3.10;;;15.00;63.10;;;;;;5046317;28;20147;-20
2023/02/08 07:36:54;;;;;;;2.47;2.28;;;14.90;63.40;;;;;;5043230;28;20131;-18
2023/02/08 07:39:20;;;;;;;2.80;2.60;;;14.90;63.40;;;;;;5043785;28;20500;-18
2023/02/08 07:41:46;;;;;;;3.15;2.88;;;14.90;63.50;;;;;;5046025;28;20044;-22
2023/02/08 07:44:11;;;;;;;3.80;3.10;;;14.90;63.50;;;;;;5043732;28;20572;-20
2023/02/08 07:46:37;;;;;;;3.35;3.05;;;14.90;63.60;;;;;;5044055;28;20070;-18
2023/02/08 07:49:02;;;;;;;2.92;2.72;;;15.00;63.70;;;;;;5042498;28;20057;-18
2023/02/08 07:51:28;;;;;;;2.78;2.40;;;14.90;63.60;;;;;;5043734;28;20417;-21
2023/02/08 07:53:54;;;;;;;3.38;3.17;;;15.00;63.40;;;;;;5044523;28;20739;-19
2023/02/08 07:56:19;;;;;;;3.30;2.88;;;15.00;63.40;;;;;;5045730;28;20048;-18
2023/02/08 07:58:45;;;;;;;3.45;3.05;;;14.90;63.60;;;;;;5044464;28;20065;-20
2023/02/08 08:01:10;;;;;;;3.17;2.97;;;15.00;63.60;;;;;;5043304;28;20060;-21
2023/02/08 08:03:36;;;;;;;3.70;3.40;;;15.00;63.60;;;;;;5041534;28;20075;-20
2023/02/08 08:06:02;;;;;;;2.80;2.60;;;15.00;63.90;;;;;;5043716;28;20072;-18
2023/02/08 08:08:27;;;;;;;3.47;3.20;;;15.00;63.50;;;;;;5044662;28;20047;-18
2023/02/08 08:10:53;;;;;;;3.40;3.20;;;15.00;64.00;;;;;;5044690;28;20053;-19
2023/02/08 08:13:18;;;;;;;2.97;2.58;;;15.00;63.60;;;;;;5043664;28;20041;-18
2023/02/08 08:15:45;;;;;;;3.40;3.20;;;15.00;63.80;;;;;;5041744;28;20071;-20
2023/02/08 08:18:11;;;;;;;3.92;3.65;;;15.00;63.90;;;;;;5045344;28;20384;-25
2023/02/08 08:20:36;;;;;;;3.13;2.92;;;15.00;63.80;;;;;;5043876;28;20049;-18
2023/02/08 08:23:02;;;;;;;3.13;3.03;;;15.00;63.80;;;;;;5043072;28;20063;-18
2023/02/08 08:25:27;;;;;;;3.20;3.00;;;15.00;63.80;;;;;;5043886;28;20040;-19
2023/02/08 08:27:53;;;;;;;3.10;2.90;;;15.10;63.30;;;;;;5043054;28;20048;-17
2023/02/08 08:30:19;;;;;;;3.53;3.25;;;15.10;63.10;;;;;;5043726;28;20076;-17
2023/02/08 08:32:45;;;;;;;3.45;3.20;;;15.20;63.10;;;;;;5044206;28;21759;-17
2023/02/08 08:35:11;;;;;;;2.88;2.72;;;15.30;62.80;;;;;;5043536;28;20499;-17
2023/02/08 08:37:36;;;;;;;2.83;2.53;;;15.10;62.70;;;;;;5043501;28;20056;-29
2023/02/08 08:40:03;;;;;;;2.80;2.60;;;15.00;63.30;;;;;;5044341;28;20488;-16
2023/02/08 08:42:28;;;;;;;4.18;3.20;;;15.10;63.50;;;;;;5043526;28;20474;-19
2023/02/08 08:44:54;;;;;;;3.20;3.00;;;15.00;63.30;;;;;;5045273;28;20120;-21
2023/02/08 08:47:19;;;;;;;3.45;3.15;;;15.00;63.60;;;;;;5045078;28;20052;-17
2023/02/08 08:49:45;;;;;;;3.75;3.15;;;15.00;63.50;;;;;;5047869;28;20772;-17
2023/02/08 08:52:11;;;;;;;3.38;3.17;;;15.00;63.70;;;;;;5044952;28;20426;-18
2023/02/08 08:54:36;;;;;;;3.45;3.03;;;15.00;63.50;;;;;;5046963;28;21031;-18
2023/02/08 08:57:02;;;;;;;4.68;2.88;;;15.10;63.90;;;;;;5046482;28;20462;-21
2023/02/08 08:59:28;;;;;;;3.22;2.78;;;15.00;64.70;;;;;;5047832;28;20048;-17
2023/02/08 09:01:53;;;;;;;3.38;3.17;;;15.10;64.00;;;;;;5046646;28;22960;-18
2023/02/08 09:04:21;;;;;;;2.70;2.58;;;15.10;64.00;;;;;;5046461;28;20097;-19
2023/02/08 09:06:48;;;;;;;3.03;2.40;;;15.00;63.90;;;;;;5048082;28;20056;-17
2023/02/08 09:09:13;;;;;;;2.78;2.58;;;15.10;63.80;;;;;;5048877;28;20044;-17
2023/02/08 09:11:39;;;;;;;3.33;2.90;;;15.00;63.30;;;;;;5048371;28;20066;-17
2023/02/08 09:14:05;;;;;;;3.10;2.90;;;15.00;63.20;;;;;;5048433;28;20127;-18
2023/02/08 09:16:30;;;;;;;2.95;2.80;;;15.10;62.70;;;;;;5046762;28;20044;-27
2023/02/08 09:18:59;;;;;;;2.97;2.67;;;15.10;62.70;;;;;;5045979;28;20045;-18
2023/02/08 09:21:24;;;;;;;3.30;3.00;;;15.10;62.80;;;;;;5051919;28;20041;-17
2023/02/08 09:23:50;;;;;;;2.92;2.72;;;15.10;62.60;;;;;;5047441;28;21181;-17
2023/02/08 09:26:16;;;;;;;2.70;2.50;;;15.10;62.40;;;;;;5048848;28;20048;-17
2023/02/08 09:28:42;;;;;;;2.40;2.30;;;15.10;62.40;;;;;;5062917;28;20052;-20
2023/02/08 09:31:12;;;;;;;3.95;2.55;;;15.10;62.30;;;;;;5048011;28;20044;-18
2023/02/08 09:33:37;;;;;;;2.85;2.70;;;15.10;62.30;;;;;;5048232;28;20041;-18
2023/02/08 09:36:03;;;;;;;3.95;2.50;;;15.20;62.20;;;;;;5045985;28;20383;-17
2023/02/08 09:38:29;;;;;;;3.22;2.95;;;15.20;62.20;;;;;;5047037;28;20045;-18
2023/02/08 09:41:13;;;;;;;2.83;2.63;;;15.30;62.00;;;;;;5046832;28;20043;-17
2023/02/08 09:44:09;;;;;;;2.70;2.50;;;15.20;62.10;;;;;;5047730;28;20057;-18
2023/02/08 09:46:38;;;;;;;2.90;2.70;;;15.20;62.20;;;;;;5047952;28;20045;-17
2023/02/08 09:49:04;;;;;;;3.20;2.78;;;15.20;62.10;;;;;;5050140;28;20041;-20
2023/02/08 09:51:34;;;;;;;3.13;2.75;;;15.30;62.10;;;;;;5048542;28;20132;-23
2023/02/08 09:54:16;;;;;;;2.80;2.60;;;15.30;62.20;;;;;;5049390;28;20141;-19
2023/02/08 09:56:42;;;;;;;3.10;2.90;;;15.30;62.10;;;;;;5046091;28;20479;-18
2023/02/08 09:59:16;;;;;;;2.70;2.50;;;15.30;62.20;;;;;;5062005;28;20046;-20
2023/02/08 10:01:42;;;;;;;;;;;15.40;62.20;;;;;;5050882;28;20049;-17
2023/02/08 10:04:29;;;;;;;2.40;2.30;;;15.50;61.80;;;;;;5052186;28;19928;-22
2023/02/08 10:06:55;;;;;;;2.22;2.13;;;15.60;61.50;;;;;;5046080;28;20048;-17
2023/02/08 10:09:24;;;;;;;2.55;2.35;;;15.50;61.30;;;;;;5046902;28;20053;-17
2023/02/08 10:12:07;;;;;;;2.20;2.10;;;15.60;61.50;;;;;;5049664;28;22388;-17
2023/02/08 10:14:52;;;;;;;2.63;2.35;;;15.70;61.30;;;;;;5046621;28;20041;-18
2023/02/08 10:17:17;;;;;;;;;;;15.70;61.00;;;;;;5053556;28;20087;-27
2023/02/08 10:20:03;;;;;;;2.38;2.28;;;15.80;61.00;;;;;;5045432;28;19999;-17
2023/02/08 10:22:43;;;;;;;2.45;2.35;;;15.70;61.10;;;;;;5043784;28;20044;-20
2023/02/08 10:26:05;;;;;;;2.33;2.22;;;15.70;61.20;;;;;;5046301;28;20092;-17
2023/02/08 10:28:43;;;;;;;2.40;2.30;;;15.70;61.40;;;;;;5019632;28;20044;-17
2023/02/08 10:31:18;;;;;;;2.30;2.20;;;15.70;61.40;;;;;;5027824;28;20069;-18
2023/02/08 10:34:00;;;;;;;2.10;2.00;;;15.70;61.30;;;;;;5030535;28;20049;-18
2023/02/08 10:36:28;;;;;;;2.10;2.00;;;15.70;61.20;;;;;;5026866;28;20057;-16
2023/02/08 10:38:54;;;;;;;2.30;2.20;;;15.70;61.30;;;;;;5030302;28;20558;-21
2023/02/08 10:41:22;;;;;;;2.60;2.40;;;15.70;61.30;;;;;;5029030;28;20630;-17
2023/02/08 10:44:26;;;;;;;2.90;2.80;;;15.70;61.30;;;;;;5010136;28;20053;-18
2023/02/08 10:47:11;;;;;;;2.83;2.72;;;15.80;61.20;;;;;;4996227;28;20053;-17
2023/02/08 10:49:45;;;;;;;2.40;2.30;;;15.80;61.10;;;;;;5011338;28;20061;-20
2023/02/08 10:52:10;;;;;;;2.20;2.10;;;15.80;61.10;;;;;;5029366;28;20566;-20
2023/02/08 10:54:36;;;;;;;2.22;2.05;;;15.80;61.10;;;;;;5009374;28;20037;-17
2023/02/08 10:57:11;;;;;;;2.40;2.28;;;15.80;61.00;;;;;;5029171;28;20052;-18
2023/02/08 10:59:50;;;;;;;2.22;2.13;;;15.80;61.10;;;;;;4997227;28;20029;-24
2023/02/08 11:02:23;;;;;;;2.13;2.03;;;15.80;61.10;;;;;;5014139;28;20049;-17
2023/02/08 11:05:01;;;;;;;2.63;2.53;;;15.90;61.10;;;;;;5011484;28;20052;-18
2023/02/08 11:07:27;;;;;;;2.00;1.90;;;15.80;61.00;;;;;;5032232;28;20052;-18
2023/02/08 11:09:52;;;;;;;2.15;2.05;;;15.90;61.00;;;;;;5041621;28;20040;-17
2023/02/08 11:12:19;;;;;;;2.90;1.80;;;15.90;61.00;;;;;;5041555;28;20048;-21
2023/02/08 11:14:48;;;;;;;2.65;2.53;;;15.90;61.00;;;;;;5050233;28;20048;-17
2023/02/08 11:17:27;;;;;;;2.40;2.30;;;15.90;60.90;;;;;;5045946;28;20663;-17
2023/02/08 11:19:53;;;;;;;2.10;2.00;;;15.90;60.90;;;;;;5050761;28;20123;-17
2023/02/08 11:22:19;;;;;;;2.22;2.13;;;15.90;60.80;;;;;;5044956;28;20062;-28
2023/02/08 11:24:49;;;;;;;2.20;2.10;;;15.90;60.80;;;;;;5043973;28;20436;-17
2023/02/08 11:27:27;;;;;;;2.30;2.20;;;15.90;60.80;;;;;;5045093;28;20066;-18
2023/02/08 11:30:14;;;;;;;2.30;2.20;;;15.90;60.90;;;;;;5044723;28;20056;-24
2023/02/08 11:32:47;;;;;;;1.77;1.67;;;15.90;60.80;;;;;;5043617;28;20049;-17
2023/02/08 11:35:22;;;;;;;2.20;2.10;;;15.90;60.70;;;;;;5046284;28;20471;-18
2023/02/08 11:37:51;;;;;;;1.90;1.80;;;15.90;60.70;;;;;;5044759;28;20053;-24
2023/02/08 11:40:28;;;;;;;1.90;1.80;;;16.00;60.60;;;;;;5049133;28;20044;-17
2023/02/08 11:42:54;;;;;;;2.35;1.92;;;16.00;60.60;;;;;;5042162;28;20061;-18
2023/02/08 11:45:40;;;;;;;1.88;1.77;;;16.00;60.80;;;;;;5031326;28;20196;-17
2023/02/08 11:48:05;;;;;;;2.88;1.85;;;16.00;60.80;;;;;;4682776;28;9999938;-16
2023/02/08 11:50:33;;;;;;;2.20;2.10;;;16.10;60.70;;;;;;5026624;28;20062;-19
2023/02/08 11:53:06;;;;;;;2.45;2.25;;;16.10;60.70;;;;;;5025727;28;20052;-22
2023/02/08 11:55:32;;;;;;;2.90;1.90;;;16.10;60.60;;;;;;5041113;28;20814;-19
2023/02/08 11:58:04;;;;;;;2.97;2.30;;;16.10;60.60;;;;;;5041332;28;20045;-19
2023/02/08 12:00:34;;;;;;;2.60;2.40;;;16.10;60.40;;;;;;5038848;28;20740;-20
2023/02/08 12:03:04;;;;;;;2.45;2.28;;;16.10;60.50;;;;;;5039261;28;20064;-18
2023/02/08 12:05:44;;;;;;;2.53;2.33;;;16.10;60.50;;;;;;5040508;28;20103;-20
2023/02/08 12:08:34;;;;;;;2.40;2.20;;;16.10;60.70;;;;;;5045333;28;20131;-19
2023/02/08 12:11:26;;;;;;;2.75;2.55;;;16.10;60.90;;;;;;5031087;28;20102;-19
2023/02/08 12:14:21;;;;;;;2.40;2.28;;;16.20;61.00;;;;;;5038642;28;20131;-19
2023/02/08 12:17:10;;;;;;;2.45;2.25;;;16.20;61.10;;;;;;5035365;28;20053;-17
2023/02/08 12:19:41;;;;;;;2.45;2.28;;;16.20;61.10;;;;;;5037883;28;20529;-17
2023/02/08 12:22:40;;;;;;;2.63;2.42;;;16.20;61.00;;;;;;5040432;28;20489;-17
2023/02/08 12:25:18;;;;;;;2.50;1.98;;;16.20;61.20;;;;;;5033241;28;20051;-18
2023/02/08 12:28:09;;;;;;;2.72;2.40;;;16.20;61.10;;;;;;5042496;28;20481;-18
2023/02/08 12:30:52;;;;;;;3.45;2.30;;;16.20;61.20;;;;;;5046962;28;20201;-23
2023/02/08 12:33:59;;;;;;;2.08;1.98;;;16.20;61.20;;;;;;5042655;28;20052;-18
2023/02/08 12:36:37;;;;;;;2.72;2.22;;;16.30;61.20;;;;;;5046140;28;20060;-17
2023/02/08 12:42:11;;;;;;;2.25;2.05;;;16.30;61.20;;;;;;5051509;28;20528;-17
2023/02/08 12:44:53;;;;;;;1.80;1.70;;;16.30;61.10;;;;;;5047895;28;20914;-17
2023/02/08 12:47:29;;;;;;;2.10;2.00;;;16.30;61.20;;;;;;5052665;28;20057;-18
2023/02/08 12:50:15;;;;;;;2.72;1.98;;;16.20;61.10;;;;;;5049015;28;20055;-20
2023/02/08 12:53:18;;;;;;;2.42;1.63;;;16.30;61.10;;;;;;5046514;28;20083;-17
2023/02/08 12:55:45;;;;;;;1.90;1.80;;;16.30;61.10;;;;;;5031722;28;20688;-17
2023/02/08 12:58:30;;;;;;;1.80;1.70;;;16.30;61.00;;;;;;5042727;28;21867;-20
2023/02/08 13:01:01;;;;;;;2.58;1.90;;;16.30;61.00;;;;;;5012478;28;20049;-17
2023/02/08 13:03:36;;;;;;;1.77;1.60;;;16.30;61.10;;;;;;5009607;28;20519;-18
2023/02/08 13:06:04;;;;;;;2.50;2.03;;;16.30;61.00;;;;;;5014273;28;20111;-24
2023/02/08 13:08:40;;;;;;;3.75;2.25;;;16.30;61.00;;;;;;5042646;28;20061;-22